Time;durP1;ratioP1;P1;durP2;ratioP2;P2;SDS_P1;SDS_P2;PMS_P1;PMS_P2;Temp;Humidity;BMP_temperature;BMP_pressure;BME280_temperature;BME280_humidity;BME280_pressure;Samples;Min_cycle;Max_cycle;Signal;HPM_P1;HPM_P2
2022/11/16 00:01:31;;;;;;;1999.90;999.90;;;;;;;10.84;100.00;97208.56;5110479;28;20392;-75
2022/11/16 00:03:59;;;;;;;1999.90;999.90;;;;;;;10.85;100.00;97205.50;5099631;28;20020;-78
2022/11/16 00:06:27;;;;;;;1999.90;999.90;;;;;;;10.93;100.00;97196.50;5078366;28;20031;-76
2022/11/16 00:09:21;;;;;;;1999.90;999.90;;;;;;;10.94;100.00;97192.66;5095835;28;20036;-78
2022/11/16 00:12:04;;;;;;;1999.90;999.90;;;;;;;10.85;100.00;97188.28;5111040;28;20020;-77
2022/11/16 00:14:34;;;;;;;1999.90;999.90;;;;;;;10.73;100.00;97192.41;5105962;28;20024;-75
2022/11/16 00:17:00;;;;;;;1999.90;999.90;;;;;;;10.69;100.00;97183.22;5103602;28;20044;-75
2022/11/16 00:19:27;;;;;;;1999.90;999.90;;;;;;;10.68;100.00;97189.03;5103111;28;20076;-75
2022/11/16 00:21:52;;;;;;;1999.90;999.90;;;;;;;10.71;100.00;97189.16;5096721;28;20115;-74
2022/11/16 00:24:19;;;;;;;1999.90;999.90;;;;;;;10.74;100.00;97187.75;5101195;28;20467;-74
2022/11/16 00:26:46;;;;;;;1999.90;999.90;;;;;;;10.69;100.00;97180.47;5105572;28;20027;-75
2022/11/16 00:29:16;;;;;;;1999.90;999.90;;;;;;;10.69;100.00;97183.22;5104375;28;20361;-75
2022/11/16 00:31:43;;;;;;;1999.90;999.90;;;;;;;10.68;100.00;97178.84;5101985;28;20474;-74
2022/11/16 00:34:09;;;;;;;1999.90;999.90;;;;;;;10.74;100.00;97174.09;5100331;28;20484;-75
2022/11/16 00:36:34;;;;;;;1999.90;999.90;;;;;;;10.74;100.00;97169.41;5098742;28;20035;-75
2022/11/16 00:38:59;;;;;;;1999.90;999.90;;;;;;;10.73;100.00;97172.47;5103091;28;20464;-75
2022/11/16 00:41:25;;;;;;;1999.90;999.90;;;;;;;10.85;100.00;97160.91;5099962;28;20070;-74
2022/11/16 00:43:50;;;;;;;1999.90;999.90;;;;;;;10.85;100.00;97155.44;5097405;28;20485;-75
2022/11/16 00:46:15;;;;;;;1999.90;999.90;;;;;;;10.87;100.00;97164.16;5099757;28;20491;-75
2022/11/16 00:48:41;;;;;;;1999.90;999.90;;;;;;;10.79;100.00;97153.97;5100471;28;20024;-76
2022/11/16 00:51:06;;;;;;;1999.90;999.90;;;;;;;10.84;100.00;97149.16;5103228;28;20031;-75
2022/11/16 00:53:32;;;;;;;1999.90;999.90;;;;;;;10.76;100.00;97147.22;5103997;28;20051;-76
2022/11/16 00:55:57;;;;;;;1999.90;999.90;;;;;;;10.70;100.00;97141.09;5102887;28;20020;-75
2022/11/16 00:58:23;;;;;;;1999.90;999.90;;;;;;;10.65;100.00;97135.72;5098962;28;20028;-76
2022/11/16 01:00:49;;;;;;;1999.90;999.90;;;;;;;10.61;100.00;97140.25;5100255;28;20157;-75
2022/11/16 01:03:15;;;;;;;1999.90;999.90;;;;;;;10.64;100.00;97136.88;5096760;28;20126;-75
2022/11/16 01:05:40;;;;;;;1999.90;999.90;;;;;;;10.65;100.00;97130.25;5092852;28;20024;-76
2022/11/16 01:08:06;;;;;;;1999.90;999.90;;;;;;;10.66;100.00;97126.41;5098086;28;20035;-74
2022/11/16 01:10:31;;;;;;;1999.90;999.90;;;;;;;10.73;100.00;97115.84;5097667;28;20031;-75
2022/11/16 01:12:57;;;;;;;1999.90;999.90;;;;;;;10.79;100.00;97118.41;5107266;28;20019;-76
2022/11/16 01:15:25;;;;;;;1999.90;999.90;;;;;;;10.80;100.00;97120.84;5106377;28;20528;-75
2022/11/16 01:17:52;;;;;;;1999.90;999.90;;;;;;;10.84;100.00;97110.06;5112767;28;20606;-76
2022/11/16 01:20:19;;;;;;;1999.90;999.90;;;;;;;10.82;100.00;97101.38;5112866;28;20062;-74
2022/11/16 01:22:46;;;;;;;1999.90;999.90;;;;;;;10.73;100.00;97099.41;5113143;28;20046;-75
2022/11/16 01:25:14;;;;;;;1999.90;999.90;;;;;;;10.79;100.00;97093.78;5113061;28;20043;-76
2022/11/16 01:27:41;;;;;;;1999.90;999.90;;;;;;;10.76;100.00;97092.50;5113139;28;20446;-75
2022/11/16 01:30:08;;;;;;;1999.90;999.90;;;;;;;10.70;100.00;97083.66;5113694;28;20054;-75
2022/11/16 01:32:34;;;;;;;1999.90;999.90;;;;;;;10.77;100.00;97083.97;5113977;28;20039;-75
2022/11/16 01:35:00;;;;;;;1999.90;999.90;;;;;;;10.80;100.00;97076.25;5114175;28;20024;-75
2022/11/16 01:37:26;;;;;;;1999.90;999.90;;;;;;;10.79;100.00;97077.38;5114086;28;20027;-73
2022/11/16 01:39:51;;;;;;;1999.90;999.90;;;;;;;10.77;100.00;97062.06;5113801;28;20027;-74
2022/11/16 01:42:19;;;;;;;1999.90;999.90;;;;;;;10.75;100.00;97069.81;5113514;28;20039;-74
2022/11/16 01:44:44;;;;;;;1999.90;999.90;;;;;;;10.71;100.00;97057.09;5114235;28;20400;-75
2022/11/16 01:47:12;;;;;;;1999.90;999.90;;;;;;;10.63;100.00;97052.41;5114085;28;20027;-74
2022/11/16 01:49:44;;;;;;;1999.90;999.90;;;;;;;10.61;100.00;97060.94;5113728;28;20028;-75
2022/11/16 01:52:14;;;;;;;1999.90;999.90;;;;;;;10.70;100.00;97058.22;5113753;28;20035;-76
2022/11/16 01:54:43;;;;;;;1999.90;999.90;;;;;;;10.70;100.00;97059.03;5113995;28;20070;-77
2022/11/16 01:57:12;;;;;;;1999.90;999.90;;;;;;;10.72;100.00;97048.56;5113879;28;20100;-75
2022/11/16 01:59:39;;;;;;;1999.90;999.90;;;;;;;10.66;100.00;97047.09;5113394;28;20032;-75
2022/11/16 02:02:04;;;;;;;1999.90;999.90;;;;;;;10.62;100.00;97046.13;5114724;28;20491;-76
2022/11/16 02:04:30;;;;;;;1999.90;999.90;;;;;;;10.60;100.00;97034.69;5113575;28;20027;-75
2022/11/16 02:07:28;;;;;;;1999.90;999.90;;;;;;;10.63;100.00;97039.53;5113479;28;20408;-74
2022/11/16 02:10:19;;;;;;;1999.90;999.90;;;;;;;10.68;100.00;97033.13;5071776;28;20104;-75
2022/11/16 02:13:02;;;;;;;1999.90;999.90;;;;;;;10.65;100.00;97029.06;5113447;28;20055;-74
2022/11/16 02:15:48;;;;;;;1999.90;999.90;;;;;;;10.67;100.00;97035.06;5114523;28;20032;-76
2022/11/16 02:18:30;;;;;;;1999.90;999.90;;;;;;;10.68;100.00;97030.41;5113509;28;20019;-76
2022/11/16 02:21:17;;;;;;;1999.90;999.90;;;;;;;10.65;100.00;97031.81;5113343;28;20081;-78
2022/11/16 02:24:01;;;;;;;1999.90;999.90;;;;;;;10.65;100.00;97026.34;5112797;28;20031;-74
2022/11/16 02:26:50;;;;;;;1999.90;999.90;;;;;;;10.68;100.00;97027.66;5113061;28;20032;-76
2022/11/16 02:29:20;;;;;;;1999.90;999.90;;;;;;;10.72;100.00;97015.75;5113009;28;20031;-75
2022/11/16 02:31:57;;;;;;;1999.90;999.90;;;;;;;10.68;100.00;97009.28;5113049;28;20554;-75
2022/11/16 02:34:26;;;;;;;1999.90;999.90;;;;;;;10.65;100.00;97006.41;5113142;28;20028;-76
2022/11/16 02:36:55;;;;;;;1999.90;999.90;;;;;;;10.59;100.00;97003.00;5112888;28;20539;-75
2022/11/16 02:39:25;;;;;;;1999.90;999.90;;;;;;;10.54;100.00;96994.97;5112839;28;20030;-75
2022/11/16 02:41:51;;;;;;;1999.90;999.90;;;;;;;10.51;100.00;96990.13;5112588;28;20431;-73
2022/11/16 02:44:42;;;;;;;1999.90;999.90;;;;;;;10.47;100.00;96989.16;5113175;28;20032;-75
2022/11/16 02:47:12;;;;;;;1999.90;999.90;;;;;;;10.39;100.00;96992.69;5113011;28;20027;-75
2022/11/16 02:49:43;;;;;;;1999.90;999.90;;;;;;;10.41;100.00;96987.69;5112630;28;20047;-74
2022/11/16 02:52:10;;;;;;;1999.90;999.90;;;;;;;10.35;100.00;96991.69;5112665;28;20036;-75
2022/11/16 02:54:36;;;;;;;1999.90;999.90;;;;;;;10.35;100.00;96983.50;5112821;28;20236;-74
2022/11/16 02:57:01;;;;;;;1999.90;999.90;;;;;;;10.32;100.00;96980.59;5112560;28;20516;-75
2022/11/16 02:59:49;;;;;;;1999.90;999.90;;;;;;;10.23;100.00;96974.28;5112990;28;20114;-75
2022/11/16 03:02:38;;;;;;;1999.90;999.90;;;;;;;10.22;100.00;96968.03;5111551;28;20027;-76
2022/11/16 03:05:10;;;;;;;1999.90;999.90;;;;;;;10.22;100.00;96962.56;5098814;28;20510;-75
2022/11/16 03:07:45;;;;;;;1999.90;999.90;;;;;;;10.16;100.00;96958.38;5080297;28;20082;-75
2022/11/16 03:11:58;;;;;;;1999.90;999.90;;;;;;;10.08;100.00;96956.38;5112098;28;20032;-75
2022/11/16 03:13:00;;;;;;;1999.90;999.90;;;;;;;10.01;100.00;96945.91;5111996;28;20114;-76
2022/11/16 03:15:25;;;;;;;1999.90;999.90;;;;;;;10.05;100.00;96946.09;5112680;28;20057;-75
2022/11/16 03:17:52;;;;;;;1999.90;999.90;;;;;;;10.09;100.00;96944.31;5112001;28;20027;-75
2022/11/16 03:20:25;;;;;;;1999.90;999.90;;;;;;;10.07;100.00;96941.09;5100467;28;20017;-76
2022/11/16 03:23:00;;;;;;;1999.90;999.90;;;;;;;10.04;100.00;96942.56;5091403;28;20099;-73
2022/11/16 03:25:32;;;;;;;1999.90;999.90;;;;;;;10.00;100.00;96927.91;5091505;28;20034;-75
2022/11/16 03:28:11;;;;;;;1999.90;999.90;;;;;;;9.97;100.00;96935.94;5073288;28;20034;-72
2022/11/16 03:30:42;;;;;;;1999.90;999.90;;;;;;;9.96;100.00;96928.88;5091494;28;20028;-75
2022/11/16 03:33:31;;;;;;;1999.90;999.90;;;;;;;9.97;100.00;96920.34;5092013;28;20070;-73
2022/11/16 03:36:24;;;;;;;1999.90;999.90;;;;;;;9.89;100.00;96917.59;5091829;28;20039;-75
2022/11/16 03:38:51;;;;;;;1999.90;999.90;;;;;;;9.78;100.00;96924.44;5091215;28;20034;-74
2022/11/16 03:41:19;;;;;;;1999.90;999.90;;;;;;;9.76;100.00;96915.78;5091337;28;20032;-72
2022/11/16 03:43:48;;;;;;;1999.90;999.90;;;;;;;9.81;100.00;96912.88;5091504;28;20028;-75
2022/11/16 03:46:15;;;;;;;1999.90;999.90;;;;;;;9.80;100.00;96911.31;5091762;28;20032;-75
2022/11/16 03:48:41;;;;;;;1999.90;999.90;;;;;;;9.76;100.00;96900.19;5091521;28;20050;-74
2022/11/16 03:51:09;;;;;;;1999.90;999.90;;;;;;;9.76;100.00;96902.13;5091691;28;20016;-74
2022/11/16 03:53:34;;;;;;;1999.90;999.90;;;;;;;9.71;100.00;96908.50;5093328;28;20035;-74
2022/11/16 03:55:59;;;;;;;1999.90;999.90;;;;;;;9.68;100.00;96898.22;5097054;28;20024;-75
2022/11/16 03:58:25;;;;;;;1999.90;999.90;;;;;;;9.66;100.00;96903.19;5113129;28;20061;-75
2022/11/16 04:00:50;;;;;;;1999.90;999.90;;;;;;;9.61;100.00;96895.16;5095000;28;20096;-75
2022/11/16 04:03:16;;;;;;;1999.90;999.90;;;;;;;9.58;100.00;96898.53;5112274;28;20072;-75
2022/11/16 04:25:25;;;;;;;1999.90;999.90;;;;;;;9.31;100.00;96866.75;5111248;28;20046;-76
2022/11/16 04:38:50;;;;;;;1999.90;999.90;;;;;;;9.23;100.00;96859.34;5112212;28;20034;-77
2022/11/16 04:43:59;;;;;;;1999.90;999.90;;;;;;;9.28;100.00;96845.56;5110865;28;20040;-76
2022/11/16 04:49:08;;;;;;;1999.90;999.90;;;;;;;9.27;100.00;96840.44;5114699;28;20026;-75
2022/11/16 04:51:34;;;;;;;1999.90;999.90;;;;;;;9.26;100.00;96842.34;5114586;28;20450;-75
2022/11/16 04:53:59;;;;;;;1999.90;999.90;;;;;;;9.23;100.00;96842.97;5115321;28;20076;-78
2022/11/16 04:56:24;;;;;;;1999.90;999.90;;;;;;;9.20;100.00;96840.88;5114720;28;20098;-75
2022/11/16 04:58:50;;;;;;;1999.90;999.90;;;;;;;9.24;100.00;96830.16;5114457;28;20044;-76
2022/11/16 05:01:15;;;;;;;1999.90;999.90;;;;;;;9.22;100.00;96830.44;5114692;28;20071;-76
2022/11/16 05:03:40;;;;;;;1999.90;999.90;;;;;;;9.28;100.00;96828.38;5114354;28;20032;-75
2022/11/16 05:06:06;;;;;;;1999.90;999.90;;;;;;;9.28;100.00;96823.72;5114724;28;20019;-74
2022/11/16 05:08:31;;;;;;;1999.90;999.90;;;;;;;9.32;100.00;96830.19;5114512;28;20043;-76
2022/11/16 05:10:56;;;;;;;1999.90;999.90;;;;;;;9.14;100.00;96823.03;5115285;28;20053;-77
2022/11/16 05:13:22;;;;;;;1999.90;999.90;;;;;;;9.24;100.00;96830.94;5120147;28;20165;-74
2022/11/16 05:15:47;;;;;;;1999.90;999.90;;;;;;;9.26;100.00;96822.44;5119182;28;20103;-75
2022/11/16 05:18:13;;;;;;;1999.90;999.90;;;;;;;9.08;100.00;96827.81;5114599;28;20023;-74
2022/11/16 05:21:20;;;;;;;1999.90;999.90;;;;;;;9.09;100.00;96813.06;5114057;28;20028;-75
2022/11/16 05:26:10;;;;;;;1999.90;999.90;;;;;;;9.30;100.00;96810.59;5114662;28;20447;-75
2022/11/16 05:28:36;;;;;;;1999.90;999.90;;;;;;;9.32;100.00;96805.63;5114022;28;20063;-75
2022/11/16 05:31:01;;;;;;;1999.90;999.90;;;;;;;9.31;100.00;96811.38;5115752;28;20488;-75
2022/11/16 05:33:26;;;;;;;1999.90;999.90;;;;;;;9.33;100.00;96806.44;5114383;28;20487;-74
2022/11/16 05:35:52;;;;;;;1999.90;999.90;;;;;;;9.37;100.00;96805.47;5114360;28;20087;-75
2022/11/16 05:38:18;;;;;;;1999.90;999.90;;;;;;;9.34;100.00;96800.63;5114088;28;20052;-75
2022/11/16 05:40:43;;;;;;;1999.90;999.90;;;;;;;9.33;100.00;96801.78;5114405;28;20096;-75
2022/11/16 05:43:09;;;;;;;1999.90;999.90;;;;;;;9.29;100.00;96786.34;5096138;28;20469;-75
2022/11/16 05:45:34;;;;;;;1999.90;999.90;;;;;;;9.37;100.00;96789.09;5114649;28;20050;-73
2022/11/16 05:47:59;;;;;;;1999.90;999.90;;;;;;;9.32;100.00;96780.25;5114274;28;20015;-76
2022/11/16 05:50:25;;;;;;;1999.90;999.90;;;;;;;9.37;100.00;96782.81;5105321;28;20786;-76
2022/11/16 05:52:50;;;;;;;1999.90;999.90;;;;;;;9.37;100.00;96780.91;5093422;28;20057;-75
2022/11/16 05:55:15;;;;;;;1999.90;999.90;;;;;;;9.35;100.00;96776.88;5093828;28;20088;-74
2022/11/16 05:57:41;;;;;;;1999.90;999.90;;;;;;;9.34;100.00;96784.25;5094148;28;20461;-75
2022/11/16 06:00:07;;;;;;;1999.90;999.90;;;;;;;9.37;100.00;96772.72;5092914;28;20028;-76
2022/11/16 06:02:32;;;;;;;1999.90;999.90;;;;;;;9.35;100.00;96777.69;5094222;28;20663;-74
2022/11/16 06:04:58;;;;;;;1999.90;999.90;;;;;;;9.33;100.00;96765.50;5112260;28;20037;-75
2022/11/16 06:07:25;;;;;;;1999.90;999.90;;;;;;;9.39;100.00;96762.31;5081139;28;20526;-77
2022/11/16 06:09:50;;;;;;;1999.90;999.90;;;;;;;9.28;100.00;96769.16;5094323;28;20392;-75
2022/11/16 06:12:15;;;;;;;1999.90;999.90;;;;;;;9.32;100.00;96764.69;5097072;28;20039;-75
2022/11/16 06:14:41;;;;;;;1999.90;999.90;;;;;;;9.33;100.00;96758.13;5103241;28;20042;-76
2022/11/16 06:17:06;;;;;;;1999.90;999.90;;;;;;;9.39;100.00;96765.03;5105661;28;20024;-75
2022/11/16 06:19:31;;;;;;;1999.90;999.90;;;;;;;9.40;100.00;96752.97;5104448;28;20019;-77
2022/11/16 06:21:57;;;;;;;1999.90;999.90;;;;;;;9.33;100.00;96752.66;5105218;28;20039;-76
2022/11/16 06:24:22;;;;;;;1999.90;999.90;;;;;;;9.35;100.00;96755.06;5080436;28;20031;-75
2022/11/16 06:26:48;;;;;;;1999.90;999.90;;;;;;;9.40;100.00;96758.44;5099678;28;20024;-77
2022/11/16 06:29:13;;;;;;;1999.90;999.90;;;;;;;9.26;100.00;96755.03;5101547;28;20024;-78
2022/11/16 06:31:39;;;;;;;1999.90;999.90;;;;;;;9.23;100.00;96760.31;5100096;28;20026;-78
2022/11/16 06:34:04;;;;;;;1999.90;999.90;;;;;;;9.26;100.00;96755.03;5096416;28;20137;-75
2022/11/16 06:36:29;;;;;;;1999.90;999.90;;;;;;;9.33;100.00;96752.66;5099453;28;20028;-81
2022/11/16 06:38:58;;;;;;;1999.90;999.90;;;;;;;9.37;100.00;96750.06;5099490;28;20024;-79
2022/11/16 06:41:24;;;;;;;1999.90;999.90;;;;;;;9.38;100.00;96747.03;5101324;28;20043;-76
2022/11/16 06:43:50;;;;;;;1999.90;999.90;;;;;;;9.38;100.00;96752.50;5099620;28;20028;-77
2022/11/16 06:46:15;;;;;;;1999.90;999.90;;;;;;;9.38;100.00;96749.78;5109295;28;20030;-75
2022/11/16 06:48:40;;;;;;;1999.90;999.90;;;;;;;9.36;100.00;96743.84;5107851;28;20495;-75
2022/11/16 06:51:06;;;;;;;1999.90;999.90;;;;;;;9.45;100.00;96739.22;5115936;28;20425;-85
2022/11/16 06:53:31;;;;;;;1999.90;999.90;;;;;;;9.45;100.00;96741.94;5113619;28;20095;-85
2022/11/16 06:56:05;;;;;;;1999.90;999.90;;;;;;;9.51;100.00;96740.66;5122499;28;20028;-82
2022/11/16 06:58:31;;;;;;;1999.90;999.90;;;;;;;9.57;100.00;96738.56;5112441;28;20415;-81
2022/11/16 07:01:03;;;;;;;1999.90;999.90;;;;;;;9.51;100.00;96734.41;5129684;28;20039;-84
2022/11/16 07:03:30;;;;;;;1999.90;999.90;;;;;;;9.58;100.00;96729.28;5129396;28;20080;-82
2022/11/16 07:05:55;;;;;;;1999.90;999.90;;;;;;;9.64;100.00;96730.72;5126246;28;20460;-82
2022/11/16 07:08:20;;;;;;;1999.90;999.90;;;;;;;9.61;100.00;96737.63;5122626;28;20108;-75
2022/11/16 07:10:46;;;;;;;1999.90;999.90;;;;;;;9.58;100.00;96730.09;5111934;28;20032;-75
2022/11/16 07:13:11;;;;;;;1999.90;999.90;;;;;;;9.66;100.00;96732.00;5112526;28;20109;-75
2022/11/16 07:15:36;;;;;;;1999.90;999.90;;;;;;;9.66;100.00;96732.00;5112721;28;20456;-75
2022/11/16 07:18:04;;;;;;;1999.90;999.90;;;;;;;9.74;100.00;96737.81;5112629;28;20065;-76
2022/11/16 07:20:29;;;;;;;1999.90;999.90;;;;;;;9.76;100.00;96733.63;5094469;28;20499;-75
2022/11/16 07:22:54;;;;;;;1999.90;999.90;;;;;;;9.79;100.00;96724.78;5100366;28;20025;-76
2022/11/16 07:25:20;;;;;;;1999.90;999.90;;;;;;;9.75;100.00;96720.28;5095505;28;20024;-75
2022/11/16 07:27:45;;;;;;;1999.90;999.90;;;;;;;9.81;100.00;96727.19;5091647;28;20521;-76
2022/11/16 07:30:11;;;;;;;1999.90;999.90;;;;;;;9.86;100.00;96727.06;5073618;28;20530;-74
2022/11/16 07:32:38;;;;;;;1999.90;999.90;;;;;;;9.88;100.00;96738.44;5091645;28;20043;-73
2022/11/16 07:35:04;;;;;;;1999.90;999.90;;;;;;;9.91;100.00;96740.53;5073268;28;20058;-76
2022/11/16 07:37:30;;;;;;;1999.90;999.90;;;;;;;9.98;100.00;96738.13;5091480;28;20031;-75
2022/11/16 07:39:55;;;;;;;1999.90;999.90;;;;;;;10.00;100.00;96725.75;5071260;28;20040;-76
2022/11/16 07:42:20;;;;;;;1999.90;999.90;;;;;;;9.99;100.00;96729.59;5105628;28;20042;-77
2022/11/16 07:44:46;;;;;;;1999.90;999.90;;;;;;;10.02;100.00;96722.72;5111689;28;20114;-77
2022/11/16 07:47:11;;;;;;;1999.90;999.90;;;;;;;10.01;100.00;96713.72;5112276;28;20097;-75
2022/11/16 07:49:36;;;;;;;1999.90;999.90;;;;;;;9.92;100.00;96723.84;5093432;28;20053;-75
2022/11/16 07:52:02;;;;;;;1999.90;999.90;;;;;;;9.93;100.00;96724.66;5111537;28;20502;-77
2022/11/16 07:54:27;;;;;;;1999.90;999.90;;;;;;;9.98;100.00;96727.22;5112572;28;20024;-76
2022/11/16 07:56:53;;;;;;;1999.90;999.90;;;;;;;9.89;100.00;96719.03;5111752;28;20448;-75
2022/11/16 07:59:18;;;;;;;1999.90;999.90;;;;;;;9.98;100.00;96716.28;5111967;28;20092;-77
2022/11/16 08:01:46;;;;;;;1999.90;999.90;;;;;;;9.89;100.00;96715.47;5111148;28;20065;-75
2022/11/16 08:04:14;;;;;;;1999.90;999.90;;;;;;;9.98;100.00;96713.56;5089787;28;20030;-75
2022/11/16 08:06:39;;;;;;;1999.90;999.90;;;;;;;9.95;100.00;96701.34;5104167;28;20438;-76
2022/11/16 08:09:06;;;;;;;1999.90;999.90;;;;;;;9.99;100.00;96701.50;5102592;28;20080;-76
2022/11/16 08:11:31;;;;;;;1999.90;999.90;;;;;;;10.03;100.00;96707.91;5084743;28;20384;-75
2022/11/16 08:13:57;;;;;;;1999.90;999.90;;;;;;;9.95;100.00;96701.34;5081194;28;20024;-75
2022/11/16 08:16:23;;;;;;;1999.90;999.90;;;;;;;9.97;100.00;96709.19;5101928;28;20057;-76
2022/11/16 08:18:49;;;;;;;1999.90;999.90;;;;;;;9.99;100.00;96706.97;5100624;28;20434;-77
2022/11/16 08:21:16;;;;;;;1999.90;999.90;;;;;;;9.97;100.00;96699.09;5100803;28;20028;-79
2022/11/16 08:23:43;;;;;;;1999.90;999.90;;;;;;;9.96;100.00;96696.69;5100168;28;20619;-76
2022/11/16 08:26:15;;;;;;;1999.90;999.90;;;;;;;10.02;100.00;96700.88;5098553;28;20381;-74
2022/11/16 08:28:42;;;;;;;1999.90;999.90;;;;;;;10.04;100.00;96698.59;5097400;28;20024;-75
2022/11/16 08:31:10;;;;;;;1999.90;999.90;;;;;;;10.02;100.00;96698.91;5099970;28;20027;-75
2022/11/16 08:33:35;;;;;;;1999.90;999.90;;;;;;;9.98;100.00;96694.44;5102238;28;20020;-77
2022/11/16 08:36:06;;;;;;;1999.90;999.90;;;;;;;9.93;100.00;96691.88;5081008;28;20403;-76
2022/11/16 08:38:31;;;;;;;1999.90;999.90;;;;;;;9.96;100.00;96697.47;5098596;28;20484;-74
2022/11/16 08:40:57;;;;;;;1999.90;999.90;;;;;;;9.89;100.00;96694.44;5099164;28;20053;-76
2022/11/16 08:43:22;;;;;;;1999.90;999.90;;;;;;;9.88;100.00;96700.22;5100405;28;20389;-76
2022/11/16 08:45:48;;;;;;;1999.90;999.90;;;;;;;9.89;100.00;96693.63;5098568;28;20727;-76
2022/11/16 08:48:14;;;;;;;1999.90;999.90;;;;;;;9.93;100.00;96689.16;5100766;28;20031;-76
2022/11/16 08:50:39;;;;;;;1999.90;999.90;;;;;;;10.05;100.00;96697.47;5085554;28;20039;-76
2022/11/16 08:53:05;;;;;;;1999.90;999.90;;;;;;;10.00;100.00;96694.91;5101751;28;20016;-74
2022/11/16 08:55:30;;;;;;;1999.90;999.90;;;;;;;9.83;100.00;96682.06;5101326;28;20028;-74
2022/11/16 08:57:55;;;;;;;1999.90;999.90;;;;;;;9.88;100.00;96692.03;5097950;28;20020;-75
2022/11/16 09:00:21;;;;;;;1999.90;999.90;;;;;;;9.90;100.00;96697.97;5097544;28;20029;-75
2022/11/16 09:02:46;;;;;;;1999.90;999.90;;;;;;;9.92;100.00;96701.19;5098845;28;20110;-75
2022/11/16 09:05:11;;;;;;;1999.90;999.90;;;;;;;9.89;100.00;96693.63;5100751;28;20031;-76
2022/11/16 09:07:39;;;;;;;1999.90;999.90;;;;;;;9.92;100.00;96695.72;5097632;28;20398;-76
2022/11/16 09:10:06;;;;;;;1999.90;999.90;;;;;;;9.99;100.00;96698.78;5100827;28;20496;-75
2022/11/16 09:12:35;;;;;;;1999.90;999.90;;;;;;;9.97;100.00;96688.16;5098527;28;20472;-77
2022/11/16 09:15:01;;;;;;;1999.90;999.90;;;;;;;9.98;100.00;96694.44;5098393;28;20116;-74
2022/11/16 09:17:27;;;;;;;1999.90;999.90;;;;;;;10.00;100.00;96692.16;5099729;28;20110;-76
2022/11/16 09:19:52;;;;;;;1999.90;999.90;;;;;;;10.02;100.00;96690.72;5097639;28;20195;-75
2022/11/16 09:22:17;;;;;;;1999.90;999.90;;;;;;;10.09;100.00;96696.50;5101732;28;20020;-76
2022/11/16 09:24:43;;;;;;;1999.90;999.90;;;;;;;10.13;100.00;96696.66;5098673;28;20032;-76
2022/11/16 09:27:08;;;;;;;1999.90;999.90;;;;;;;10.17;100.00;96689.47;5099671;28;20027;-75
2022/11/16 09:29:33;;;;;;;1999.90;999.90;;;;;;;10.12;100.00;96684.13;5083987;28;20026;-75
2022/11/16 09:31:59;;;;;;;1999.90;999.90;;;;;;;10.11;100.00;96688.00;5107797;28;20019;-74
2022/11/16 09:34:24;;;;;;;1999.90;999.90;;;;;;;10.15;100.00;96678.84;5104802;28;20557;-74
2022/11/16 09:36:50;;;;;;;1999.90;999.90;;;;;;;10.23;100.00;96687.34;5103424;28;20048;-75
2022/11/16 09:39:16;;;;;;;1999.90;999.90;;;;;;;10.31;100.00;96676.41;5101873;28;20032;-76
2022/11/16 09:41:51;;;;;;;1999.90;999.90;;;;;;;10.41;100.00;96678.78;5103482;28;20035;-77
2022/11/16 09:44:44;;;;;;;1999.90;999.90;;;;;;;10.41;100.00;96681.53;5103334;28;20032;-76
2022/11/16 09:47:24;;;;;;;1999.90;999.90;;;;;;;10.46;100.00;96680.56;5102781;28;20065;-74
2022/11/16 09:49:52;;;;;;;1999.90;999.90;;;;;;;10.40;100.00;96673.66;5107385;28;20023;-75
2022/11/16 09:52:33;;;;;;;1999.90;999.90;;;;;;;10.39;100.00;96672.88;5107883;28;20019;-76
2022/11/16 09:55:02;;;;;;;1999.90;999.90;;;;;;;10.35;100.00;96666.44;5105083;28;20042;-76
2022/11/16 09:57:33;;;;;;;1999.90;999.90;;;;;;;10.40;100.00;96660.78;5109071;28;20024;-76
2022/11/16 10:00:07;;;;;;;1999.90;999.90;;;;;;;10.42;100.00;96664.00;5085820;28;20028;-76
2022/11/16 10:02:44;;;;;;;1999.90;999.90;;;;;;;10.40;100.00;96652.59;5107106;28;20024;-73
2022/11/16 10:05:19;;;;;;;1999.90;999.90;;;;;;;10.48;100.00;96653.69;5107471;28;20054;-74
2022/11/16 10:08:01;;;;;;;1999.90;999.90;;;;;;;10.44;100.00;96653.53;5102686;28;20120;-76
2022/11/16 10:10:36;;;;;;;1999.90;999.90;;;;;;;10.51;100.00;96653.03;5100481;28;20230;-75
2022/11/16 10:13:04;;;;;;;1999.90;999.90;;;;;;;10.54;100.00;96645.00;5102760;28;20035;-76
2022/11/16 10:15:43;;;;;;;1999.90;999.90;;;;;;;10.49;100.00;96639.72;5106442;28;20078;-76
2022/11/16 10:18:17;;;;;;;1999.90;999.90;;;;;;;10.46;100.00;96640.34;5108697;28;20019;-75
2022/11/16 10:20:50;;;;;;;1999.90;999.90;;;;;;;10.30;100.00;96636.56;5110935;28;20028;-75
2022/11/16 10:23:34;;;;;;;1999.90;999.90;;;;;;;10.38;100.00;96632.19;5101857;28;20135;-76
2022/11/16 10:26:20;;;;;;;1999.90;999.90;;;;;;;10.28;100.00;96618.84;5105827;28;20036;-74
2022/11/16 10:29:22;;;;;;;1999.90;999.90;;;;;;;10.20;100.00;96621.31;5103302;28;20059;-77
2022/11/16 10:32:16;;;;;;;1999.90;999.90;;;;;;;10.34;100.00;96632.03;5094816;28;20032;-75
2022/11/16 10:34:52;;;;;;;1999.90;999.90;;;;;;;10.45;100.00;96616.88;5103286;28;20032;-76
2022/11/16 10:37:19;;;;;;;1999.90;999.90;;;;;;;10.53;100.00;96615.22;5098201;28;21578;-77
2022/11/16 10:39:48;;;;;;;1999.90;999.90;;;;;;;10.54;100.00;96609.44;5108444;28;20024;-75
2022/11/16 10:42:20;;;;;;;1999.90;999.90;;;;;;;10.58;100.00;96615.06;5102821;28;20028;-75
2022/11/16 10:44:50;;;;;;;1999.90;999.90;;;;;;;10.59;100.00;96608.44;5097542;28;20027;-77
2022/11/16 10:47:25;;;;;;;1999.90;999.90;;;;;;;10.60;100.00;96597.19;5092823;28;20400;-75
2022/11/16 10:49:56;;;;;;;1999.90;999.90;;;;;;;10.56;100.00;96592.69;5084981;28;20121;-75
2022/11/16 10:52:22;;;;;;;1999.90;999.90;;;;;;;10.58;100.00;96585.00;5104389;28;20032;-76
2022/11/16 10:54:48;;;;;;;1999.90;999.90;;;;;;;10.49;100.00;96579.56;5104558;28;20669;-75
2022/11/16 10:57:15;;;;;;;1999.90;999.90;;;;;;;10.52;100.00;96584.38;5108706;28;20028;-74
2022/11/16 10:59:43;;;;;;;1999.90;999.90;;;;;;;10.54;100.00;96582.13;5101563;28;20024;-75
2022/11/16 11:02:23;;;;;;;1999.90;999.90;;;;;;;10.62;100.00;96584.00;5101913;28;20028;-75
2022/11/16 11:05:07;;;;;;;1999.90;999.90;;;;;;;10.71;100.00;96587.47;5101319;28;20031;-74
2022/11/16 11:07:36;;;;;;;1999.90;999.90;;;;;;;10.91;100.00;96579.66;5103731;28;20051;-76
2022/11/16 11:10:03;;;;;;;1999.90;999.90;;;;;;;10.87;100.00;96574.03;5099917;28;20818;-77
2022/11/16 11:12:37;;;;;;;1999.90;999.90;;;;;;;10.93;100.00;96572.72;5100056;28;20472;-76
2022/11/16 11:15:22;;;;;;;1999.90;999.90;;;;;;;10.98;100.00;96578.00;5099782;28;20038;-74
2022/11/16 11:17:50;;;;;;;1999.90;999.90;;;;;;;10.97;100.00;96570.13;5107789;28;20058;-75
2022/11/16 11:20:15;;;;;;;1999.90;999.90;;;;;;;10.96;100.00;96574.81;5101128;28;20405;-76
2022/11/16 11:22:56;;;;;;;1999.90;999.90;;;;;;;11.10;100.00;96571.81;5097782;28;20103;-76
2022/11/16 11:25:31;;;;;;;1999.90;999.90;;;;;;;11.29;100.00;96566.69;5095312;28;20106;-75
2022/11/16 11:28:30;;;;;;;1999.90;999.90;;;;;;;11.37;100.00;96571.28;5103686;28;20032;-75
2022/11/16 11:31:04;;;;;;;1999.90;999.90;;;;;;;11.49;100.00;96560.41;5082163;28;20047;-75
2022/11/16 11:33:34;;;;;;;1999.90;999.90;;;;;;;11.65;100.00;96564.09;5090250;28;20044;-75
2022/11/16 11:36:20;;;;;;;1999.90;999.90;;;;;;;11.94;100.00;96560.47;5090224;28;20043;-74
2022/11/16 11:38:59;;;;;;;1999.90;999.90;;;;;;;12.26;100.00;96551.41;5114057;28;20400;-75